createdAt,value
2019-02-14T00:00:51.102Z,21.13
2019-02-14T00:05:36.928Z,22.13
2019-02-14T00:10:22.608Z,26.13
2019-02-14T00:15:09.454Z,22.90
2019-02-14T00:19:55.305Z,24.33
2019-02-14T00:24:41.177Z,24.17
2019-02-14T00:29:27.062Z,23.97
2019-02-14T00:34:12.934Z,23.97
2019-02-14T00:38:59.288Z,18.73
2019-02-14T00:43:45.421Z,21.97
2019-02-14T00:48:31.158Z,21.73
2019-02-14T00:53:17.064Z,21.53
2019-02-14T00:58:02.806Z,26.00
2019-02-14T01:02:48.575Z,20.77
2019-02-14T01:07:34.449Z,17.33
2019-02-14T01:12:20.314Z,18.83
2019-02-14T01:17:06.226Z,18.07
2019-02-14T01:21:51.982Z,20.83
2019-02-14T01:26:37.746Z,20.37
2019-02-14T01:31:23.526Z,22.30
2019-02-14T01:36:09.259Z,18.27
2019-02-14T01:40:55.047Z,20.27
2019-02-14T01:45:40.727Z,21.90
2019-02-14T01:50:26.546Z,21.53
2019-02-14T01:55:12.400Z,24.17
2019-02-14T01:59:58.186Z,21.83
2019-02-14T02:04:43.923Z,22.20
2019-02-14T02:09:29.745Z,21.70
2019-02-14T02:14:15.493Z,23.57
2019-02-14T02:19:01.412Z,23.10
2019-02-14T02:23:47.212Z,24.70
2019-02-14T02:28:33.556Z,24.40
2019-02-14T02:33:19.453Z,20.57
2019-02-14T02:38:05.335Z,23.97
2019-02-14T02:42:51.844Z,21.63
2019-02-14T02:47:37.621Z,20.60
2019-02-14T02:52:23.317Z,19.47
2019-02-14T02:57:09.124Z,18.60
2019-02-14T03:01:54.835Z,19.53
2019-02-14T03:06:40.695Z,21.33
2019-02-14T03:11:26.447Z,15.40
2019-02-14T03:16:12.249Z,16.57
2019-02-14T03:20:58.032Z,19.27
2019-02-14T03:25:43.928Z,22.77
2019-02-14T03:30:29.655Z,22.57
2019-02-14T03:35:15.419Z,19.53
2019-02-14T03:40:01.162Z,19.10
2019-02-14T03:44:46.909Z,17.23
2019-02-14T03:49:32.639Z,18.90
2019-02-14T03:54:18.393Z,17.97
2019-02-14T03:59:04.084Z,16.87
2019-02-14T04:03:49.870Z,14.43
2019-02-14T04:08:35.914Z,17.50
2019-02-14T04:13:21.727Z,14.67
2019-02-14T04:18:07.498Z,18.00
2019-02-14T04:22:53.361Z,14.43
2019-02-14T04:27:40.152Z,19.73
2019-02-14T04:32:25.977Z,15.80
2019-02-14T04:37:11.712Z,20.30
2019-02-14T04:41:57.447Z,16.73
2019-02-14T04:46:45.860Z,15.63
2019-02-14T04:51:31.607Z,20.27
2019-02-14T04:56:17.330Z,19.47
2019-02-14T05:01:03.202Z,16.03
2019-02-14T05:05:48.938Z,15.70
2019-02-14T05:10:34.711Z,16.37
2019-02-14T05:15:20.442Z,18.40
2019-02-14T05:20:07.578Z,21.80
2019-02-14T05:24:53.285Z,18.47
2019-02-14T05:29:39.038Z,20.80
2019-02-14T05:34:24.774Z,24.40
2019-02-14T05:39:10.546Z,19.43
2019-02-14T05:43:56.786Z,21.67
2019-02-14T05:48:42.505Z,18.87
2019-02-14T05:53:28.250Z,22.57
2019-02-14T05:58:14.027Z,17.60
2019-02-14T06:02:59.734Z,21.43
2019-02-14T06:07:45.533Z,17.73
2019-02-14T06:12:31.494Z,16.37
2019-02-14T06:17:17.258Z,15.53
2019-02-14T06:22:03.029Z,17.77
2019-02-14T06:26:48.801Z,18.53
2019-02-14T06:31:34.537Z,17.37
2019-02-14T06:36:20.282Z,16.50
2019-02-14T06:41:06.029Z,18.43
2019-02-14T06:45:51.850Z,18.77
2019-02-14T06:50:37.590Z,18.33
2019-02-14T06:55:23.686Z,20.43
2019-02-14T07:00:11.438Z,16.20
2019-02-14T07:04:57.207Z,16.60
2019-02-14T07:09:42.935Z,17.87
2019-02-14T07:14:28.695Z,19.03
2019-02-14T07:19:14.536Z,20.70
2019-02-14T07:24:00.446Z,19.23
2019-02-14T07:28:46.161Z,25.07
2019-02-14T07:33:31.965Z,26.70
2019-02-14T07:38:17.864Z,33.60
2019-02-14T07:43:06.758Z,22.50
2019-02-14T07:47:52.664Z,29.90
2019-02-14T07:52:38.443Z,28.07
2019-02-14T07:57:24.317Z,35.17
2019-02-14T08:02:10.224Z,36.63
2019-02-14T08:06:55.975Z,30.57
2019-02-14T08:11:41.699Z,31.03
2019-02-14T08:16:27.489Z,36.33
2019-02-14T08:21:13.464Z,35.07
2019-02-14T08:25:59.190Z,35.33
2019-02-14T08:30:44.966Z,31.17
2019-02-14T08:35:30.754Z,35.47
2019-02-14T08:40:19.505Z,31.50
2019-02-14T08:45:06.236Z,22.13
2019-02-14T08:49:52.233Z,25.87
2019-02-14T08:54:38.105Z,21.53
2019-02-14T08:59:23.958Z,25.37
2019-02-14T09:04:09.761Z,23.23
2019-02-14T09:08:55.719Z,26.73
2019-02-14T09:13:41.509Z,25.43
2019-02-14T09:18:28.441Z,20.40
2019-02-14T09:23:14.720Z,24.97
2019-02-14T09:28:00.921Z,25.30
2019-02-14T09:32:47.030Z,22.07
2019-02-14T09:37:32.898Z,24.90
2019-02-14T09:42:18.801Z,18.07
2019-02-14T09:47:04.719Z,20.60
2019-02-14T09:51:50.759Z,19.67
2019-02-14T09:56:36.679Z,15.97
2019-02-14T10:01:22.517Z,17.17
2019-02-14T10:06:08.668Z,19.37
2019-02-14T10:10:54.541Z,18.40
2019-02-14T10:15:40.431Z,25.87
2019-02-14T10:20:26.255Z,19.20
2019-02-14T10:25:12.281Z,13.50
2019-02-14T10:29:58.135Z,16.87
2019-02-14T10:34:43.970Z,13.70
2019-02-14T10:39:29.772Z,14.00
2019-02-14T10:44:15.502Z,17.40
2019-02-14T10:49:01.261Z,15.70
2019-02-14T10:53:47.097Z,17.53
2019-02-14T10:58:32.927Z,12.33
2019-02-14T11:03:18.760Z,12.33
2019-02-14T11:08:04.601Z,12.23
2019-02-14T11:12:50.463Z,10.83
2019-02-14T11:17:36.235Z,11.83
2019-02-14T11:22:22.167Z,12.73
2019-02-14T11:27:08.059Z,10.50
2019-02-14T11:31:53.889Z,10.87
2019-02-14T11:36:39.661Z,8.83
2019-02-14T11:41:25.469Z,10.93
2019-02-14T11:46:11.228Z,8.23
2019-02-14T11:50:57.178Z,8.65
2019-02-14T11:55:43.044Z,9.48
2019-02-14T12:00:29.481Z,9.43
2019-02-14T12:05:15.206Z,10.48
2019-02-14T12:10:00.984Z,12.53
2019-02-14T12:14:46.817Z,11.43
2019-02-14T12:19:32.678Z,14.73
2019-02-14T12:24:18.530Z,13.43
2019-02-14T12:29:04.327Z,15.55
2019-02-14T12:33:50.145Z,12.53
2019-02-14T12:38:35.915Z,12.47
2019-02-14T12:43:21.725Z,7.87
2019-02-14T12:48:07.622Z,9.75
2019-02-14T12:52:53.414Z,14.00
2019-02-14T12:57:39.351Z,10.65
2019-02-14T13:02:25.188Z,11.53
2019-02-14T13:07:11.130Z,9.28
2019-02-14T13:11:57.033Z,12.53
2019-02-14T13:16:42.869Z,10.80
2019-02-14T13:21:28.943Z,10.05
2019-02-14T13:26:14.805Z,11.22
2019-02-14T13:31:01.194Z,8.05
2019-02-14T13:35:47.188Z,10.15
2019-02-14T13:40:33.053Z,13.38
2019-02-14T13:45:21.556Z,12.37
2019-02-14T13:50:08.449Z,9.30
2019-02-14T13:54:54.505Z,13.58
2019-02-14T13:59:40.440Z,11.43
2019-02-14T14:04:26.487Z,10.28
2019-02-14T14:09:12.480Z,10.25
2019-02-14T14:13:58.405Z,14.60
2019-02-14T14:18:44.413Z,11.43
2019-02-14T14:23:30.563Z,14.30
2019-02-14T14:28:16.439Z,12.80
2019-02-14T14:33:02.838Z,12.70
2019-02-14T14:37:48.981Z,13.80
2019-02-14T14:43:06.400Z,19.27
2019-02-14T14:47:52.626Z,11.63
2019-02-14T14:52:38.785Z,12.70
2019-02-14T14:57:24.734Z,15.00
2019-02-14T15:02:10.993Z,14.87
2019-02-14T15:06:57.566Z,11.60
2019-02-14T15:11:43.842Z,10.97
2019-02-14T15:16:30.066Z,12.20
2019-02-14T15:21:16.175Z,13.93
2019-02-14T15:26:02.397Z,15.23
2019-02-14T15:30:48.317Z,14.80
2019-02-14T15:35:34.312Z,13.77
2019-02-14T15:40:20.168Z,15.90
2019-02-14T15:45:06.276Z,17.50
2019-02-14T15:49:52.408Z,16.53
2019-02-14T15:54:38.516Z,18.03
2019-02-14T15:59:24.516Z,12.93
2019-02-14T16:04:10.434Z,16.50
2019-02-14T16:08:56.528Z,20.23
2019-02-14T16:13:42.496Z,22.80
2019-02-14T16:18:28.377Z,24.97
2019-02-14T16:23:14.454Z,22.27
2019-02-14T16:28:00.596Z,28.73
2019-02-14T16:32:46.515Z,38.93
2019-02-14T16:37:33.316Z,30.87
2019-02-14T16:42:19.218Z,34.70
2019-02-14T16:47:05.067Z,28.90
2019-02-14T16:51:50.846Z,28.07
2019-02-14T16:56:36.703Z,35.83
2019-02-14T17:01:22.799Z,33.43
2019-02-14T17:06:08.727Z,28.97
2019-02-14T17:10:54.666Z,33.40
2019-02-14T17:15:40.955Z,25.73
2019-02-14T17:20:27.098Z,26.40
2019-02-14T17:25:13.464Z,29.70
2019-02-14T17:29:59.541Z,32.23
2019-02-14T17:34:45.693Z,35.90
2019-02-14T17:39:31.684Z,32.20
2019-02-14T17:44:18.158Z,34.93
2019-02-14T17:49:04.124Z,49.00
2019-02-14T17:53:49.933Z,45.23
2019-02-14T17:58:36.084Z,40.57
2019-02-14T18:03:22.295Z,42.47
2019-02-14T18:08:08.267Z,39.23
2019-02-14T18:12:54.054Z,38.13
2019-02-14T18:17:40.138Z,32.50
2019-02-14T18:22:26.702Z,27.90
2019-02-14T18:27:12.862Z,27.97
2019-02-14T18:31:58.763Z,27.33
2019-02-14T18:36:45.088Z,27.93
2019-02-14T18:41:31.295Z,28.77
2019-02-14T18:46:17.254Z,30.03
2019-02-14T18:51:03.249Z,21.50
2019-02-14T18:55:49.178Z,27.50
2019-02-14T19:00:35.368Z,24.87
2019-02-14T19:05:21.386Z,27.57
2019-02-14T19:10:08.224Z,24.40
2019-02-14T19:14:54.141Z,23.40
2019-02-14T19:19:40.214Z,21.27
2019-02-14T19:24:26.236Z,21.80
2019-02-14T19:29:12.561Z,22.93
2019-02-14T19:33:58.772Z,22.80
2019-02-14T19:38:44.634Z,25.77
2019-02-14T19:43:30.617Z,20.67
2019-02-14T19:48:16.776Z,32.37
2019-02-14T19:53:03.276Z,28.27
2019-02-14T19:57:49.287Z,28.07
2019-02-14T20:02:35.368Z,26.57
2019-02-14T20:07:21.802Z,28.67
2019-02-14T20:12:07.831Z,29.30
2019-02-14T20:16:53.819Z,28.77
2019-02-14T20:21:39.712Z,25.00
2019-02-14T20:26:25.877Z,24.13
2019-02-14T20:31:12.277Z,30.17
2019-02-14T20:35:58.781Z,29.07
2019-02-14T20:40:45.121Z,24.50
2019-02-14T20:45:31.338Z,25.90
2019-02-14T20:50:17.625Z,28.80
2019-02-14T20:55:03.930Z,31.70
2019-02-14T20:59:49.839Z,26.00
2019-02-14T21:04:35.801Z,21.43
2019-02-14T21:09:21.851Z,29.80
2019-02-14T21:14:10.431Z,24.07
2019-02-14T21:18:56.322Z,23.17
2019-02-14T21:23:42.408Z,21.53
2019-02-14T21:28:28.528Z,24.90
2019-02-14T21:33:14.794Z,25.83
2019-02-14T21:38:00.898Z,21.93
2019-02-14T21:42:47.012Z,22.60
2019-02-14T21:47:33.789Z,23.70
2019-02-14T21:52:20.038Z,26.63
2019-02-14T21:57:06.549Z,34.10
2019-02-14T22:01:52.566Z,32.63
2019-02-14T22:06:38.674Z,32.90
2019-02-14T22:11:24.580Z,33.63
2019-02-14T22:16:10.564Z,21.57
2019-02-14T22:20:56.625Z,24.63
2019-02-14T22:25:42.880Z,21.87
2019-02-14T22:30:28.821Z,23.80
2019-02-14T22:35:15.863Z,21.23
2019-02-14T22:40:01.676Z,26.27
2019-02-14T22:44:47.644Z,24.80
2019-02-14T22:49:34.542Z,26.33
2019-02-14T22:54:20.506Z,24.40
2019-02-14T22:59:06.349Z,27.23
2019-02-14T23:03:52.254Z,24.57
2019-02-14T23:08:38.284Z,20.77
2019-02-14T23:13:24.465Z,22.33
2019-02-14T23:18:16.638Z,19.53
2019-02-14T23:23:02.509Z,17.73
2019-02-14T23:27:48.405Z,24.37
2019-02-14T23:32:34.224Z,28.43
2019-02-14T23:37:20.091Z,25.60
2019-02-14T23:42:06.063Z,23.70
2019-02-14T23:46:51.861Z,22.67
2019-02-14T23:51:37.779Z,24.97
2019-02-14T23:56:23.580Z,20.40
